Time;durP1;ratioP1;P1;durP2;ratioP2;P2;SDS_P1;SDS_P2;PMS_P1;PMS_P2;Temp;Humidity;BMP_temperature;BMP_pressure;BME280_temperature;BME280_humidity;BME280_pressure;Samples;Min_cycle;Max_cycle;Signal;HPM_P1;HPM_P2
2021/08/15 00:01:23;;;;;;;13.60;10.90;;;;;;;;;;5018938;28;20215;-82
2021/08/15 00:04:28;;;;;;;13.47;11.27;;;;;;;;;;5040543;28;20203;-82
2021/08/15 00:07:32;;;;;;;12.87;10.50;;;;;;;;;;5030207;28;20202;-82
2021/08/15 00:10:38;;;;;;;15.67;11.07;;;;;;;;;;5015017;28;20543;-82
2021/08/15 00:13:42;;;;;;;17.70;10.27;;;;;;;;;;5041998;28;20203;-82
2021/08/15 00:16:46;;;;;;;11.80;10.57;;;;;;;;;;5023563;28;20199;-82
2021/08/15 00:19:50;;;;;;;17.73;11.17;;;;;;;;;;5018632;28;20207;-82
2021/08/15 00:22:55;;;;;;;19.20;11.33;;;;;;;;;;5018780;28;20230;-82
2021/08/15 00:25:59;;;;;;;11.77;10.13;;;;;;;;;;5030000;28;20199;-82
2021/08/15 00:29:03;;;;;;;15.33;11.33;;;;;;;;;;5040126;28;20199;-82
2021/08/15 00:32:07;;;;;;;17.33;12.00;;;;;;;;;;5018249;28;20235;-82
2021/08/15 00:35:12;;;;;;;16.87;11.53;;;;;;;;;;5014006;28;20207;-82
2021/08/15 00:38:16;;;;;;;17.57;11.90;;;;;;;;;;5030543;28;20195;-82
2021/08/15 00:41:21;;;;;;;13.23;11.83;;;;;;;;;;5054116;28;20218;-82
2021/08/15 00:44:25;;;;;;;20.27;12.20;;;;;;;;;;5010771;28;20196;-82
2021/08/15 00:47:31;;;;;;;16.00;13.07;;;;;;;;;;5041058;28;20230;-82
2021/08/15 00:50:39;;;;;;;15.33;12.40;;;;;;;;;;5029194;28;20686;-82
2021/08/15 00:53:43;;;;;;;17.13;13.30;;;;;;;;;;5039986;28;20211;-82
2021/08/15 00:56:50;;;;;;;13.70;11.83;;;;;;;;;;5039698;28;20559;-82
2021/08/15 00:59:58;;;;;;;15.27;11.77;;;;;;;;;;5014435;28;20204;-82
2021/08/15 01:03:02;;;;;;;15.30;12.33;;;;;;;;;;5020056;28;20232;-82
2021/08/15 01:06:08;;;;;;;14.23;12.40;;;;;;;;;;5016643;28;20203;-82
2021/08/15 01:09:12;;;;;;;17.07;12.23;;;;;;;;;;5034178;28;20183;-82
2021/08/15 01:12:16;;;;;;;15.60;12.63;;;;;;;;;;5008470;28;20223;-82
2021/08/15 01:15:20;;;;;;;16.27;12.17;;;;;;;;;;5013957;28;20192;-82
2021/08/15 01:18:32;;;;;;;15.43;12.03;;;;;;;;;;5021982;28;20207;-82
2021/08/15 01:21:37;;;;;;;17.00;12.60;;;;;;;;;;5021082;28;20722;-82
2021/08/15 01:24:41;;;;;;;19.23;12.83;;;;;;;;;;5013600;28;20192;-82
2021/08/15 01:27:46;;;;;;;17.60;12.93;;;;;;;;;;5041426;28;20669;-82
2021/08/15 01:30:50;;;;;;;15.60;11.97;;;;;;;;;;5035629;28;20198;-82
2021/08/15 01:33:54;;;;;;;16.50;12.67;;;;;;;;;;5005712;28;20207;-82
2021/08/15 01:36:58;;;;;;;15.13;11.90;;;;;;;;;;5022145;28;20199;-82
2021/08/15 01:40:03;;;;;;;14.57;12.43;;;;;;;;;;5036251;28;20199;-82
2021/08/15 01:43:07;;;;;;;16.50;11.57;;;;;;;;;;5020190;28;20219;-82
2021/08/15 01:46:12;;;;;;;15.07;12.27;;;;;;;;;;5031715;28;20219;-82
2021/08/15 01:49:16;;;;;;;18.37;12.87;;;;;;;;;;5036036;28;20200;-82
2021/08/15 01:52:21;;;;;;;15.47;12.37;;;;;;;;;;5014696;28;20714;-82
2021/08/15 01:55:25;;;;;;;12.37;10.67;;;;;;;;;;5033041;28;20203;-82
2021/08/15 01:58:29;;;;;;;14.97;11.83;;;;;;;;;;5020752;28;20547;-82
2021/08/15 02:01:33;;;;;;;17.47;12.67;;;;;;;;;;5043833;28;20230;-82
2021/08/15 02:04:38;;;;;;;15.97;13.07;;;;;;;;;;5031717;28;20547;-82
2021/08/15 02:07:42;;;;;;;14.13;11.93;;;;;;;;;;5047200;28;20207;-82
2021/08/15 02:10:46;;;;;;;15.10;12.47;;;;;;;;;;5036976;28;20207;-82
2021/08/15 02:13:50;;;;;;;16.40;12.33;;;;;;;;;;5028378;28;20195;-82
2021/08/15 02:16:54;;;;;;;16.53;13.50;;;;;;;;;;5027272;28;20199;-82
2021/08/15 02:19:59;;;;;;;19.87;12.37;;;;;;;;;;5042273;28;20550;-82
2021/08/15 02:23:03;;;;;;;15.83;12.23;;;;;;;;;;5020038;28;20239;-82
2021/08/15 02:26:06;;;;;;;19.33;12.13;;;;;;;;;;5025747;28;20211;-82
2021/08/15 02:29:11;;;;;;;17.40;12.33;;;;;;;;;;5053507;28;20195;-82
2021/08/15 02:32:15;;;;;;;15.73;13.00;;;;;;;;;;5025022;28;20235;-83
2021/08/15 02:35:19;;;;;;;16.43;13.50;;;;;;;;;;5017675;28;20215;-84
2021/08/15 02:38:24;;;;;;;15.97;13.43;;;;;;;;;;5016322;28;20670;-84
2021/08/15 02:41:28;;;;;;;17.47;12.30;;;;;;;;;;5030302;28;20231;-83
2021/08/15 02:44:33;;;;;;;13.67;12.23;;;;;;;;;;5023559;28;20195;-84
2021/08/15 02:47:37;;;;;;;15.17;11.30;;;;;;;;;;5016294;28;20212;-84
2021/08/15 02:50:41;;;;;;;17.83;13.00;;;;;;;;;;5018129;28;20208;-84
2021/08/15 02:53:45;;;;;;;14.23;12.73;;;;;;;;;;5016097;28;20207;-84
2021/08/15 02:56:49;;;;;;;19.33;13.00;;;;;;;;;;5039751;28;20218;-84
2021/08/15 02:59:53;;;;;;;16.30;12.43;;;;;;;;;;5012039;28;20187;-84
2021/08/15 03:02:58;;;;;;;15.47;12.97;;;;;;;;;;5030146;28;20592;-84
2021/08/15 03:06:02;;;;;;;18.57;12.37;;;;;;;;;;5020422;28;20195;-84
2021/08/15 03:09:06;;;;;;;16.03;12.83;;;;;;;;;;5011739;28;20192;-84
2021/08/15 03:12:11;;;;;;;17.13;13.77;;;;;;;;;;5002676;28;20696;-84
2021/08/15 03:15:15;;;;;;;14.97;13.43;;;;;;;;;;5010991;28;20195;-84
2021/08/15 03:18:19;;;;;;;19.67;13.97;;;;;;;;;;5026631;28;20200;-84
2021/08/15 03:21:30;;;;;;;16.03;12.97;;;;;;;;;;5043471;28;20184;-84
2021/08/15 03:24:34;;;;;;;13.90;12.47;;;;;;;;;;5021995;28;20204;-84
2021/08/15 03:27:39;;;;;;;15.93;12.80;;;;;;;;;;5021014;28;20685;-84
2021/08/15 03:30:42;;;;;;;17.67;12.90;;;;;;;;;;5012565;28;20188;-84
2021/08/15 03:33:46;;;;;;;16.83;14.40;;;;;;;;;;5013997;28;20665;-85
2021/08/15 03:36:51;;;;;;;15.13;13.10;;;;;;;;;;5037433;28;20199;-84
2021/08/15 03:39:56;;;;;;;17.90;14.40;;;;;;;;;;5030731;28;20199;-84
2021/08/15 03:43:00;;;;;;;18.83;14.00;;;;;;;;;;5018559;28;20602;-84
2021/08/15 03:46:04;;;;;;;20.00;14.90;;;;;;;;;;5031372;28;20669;-84
2021/08/15 03:49:09;;;;;;;18.90;14.53;;;;;;;;;;5019836;28;20195;-85
2021/08/15 03:52:13;;;;;;;16.50;14.07;;;;;;;;;;5015457;28;20701;-85
2021/08/15 03:55:18;;;;;;;15.33;13.33;;;;;;;;;;5042839;28;20223;-85
2021/08/15 03:58:22;;;;;;;15.53;13.27;;;;;;;;;;5033179;28;20555;-85
2021/08/15 04:01:26;;;;;;;14.43;12.93;;;;;;;;;;5012449;28;20215;-85
2021/08/15 04:04:30;;;;;;;14.90;12.30;;;;;;;;;;5024931;28;20543;-85
2021/08/15 04:07:34;;;;;;;16.40;12.27;;;;;;;;;;5020352;28;20195;-84
2021/08/15 04:10:38;;;;;;;15.03;13.40;;;;;;;;;;5031329;28;20672;-84
2021/08/15 04:13:42;;;;;;;19.63;12.90;;;;;;;;;;5015011;28;20203;-84
2021/08/15 04:16:46;;;;;;;15.90;12.40;;;;;;;;;;5030158;28;20191;-84
2021/08/15 04:19:50;;;;;;;14.23;12.63;;;;;;;;;;5030149;28;20206;-84
2021/08/15 04:22:55;;;;;;;16.23;12.60;;;;;;;;;;5028227;28;20219;-84
2021/08/15 04:25:59;;;;;;;17.47;12.57;;;;;;;;;;4999555;28;20643;-84
2021/08/15 04:29:03;;;;;;;14.00;12.50;;;;;;;;;;5031967;28;20202;-84
2021/08/15 04:32:07;;;;;;;15.03;11.77;;;;;;;;;;5031347;28;20223;-84
2021/08/15 04:35:11;;;;;;;17.30;12.67;;;;;;;;;;5041624;28;20650;-84
2021/08/15 04:38:16;;;;;;;13.63;11.90;;;;;;;;;;5023515;28;20187;-84
2021/08/15 04:41:20;;;;;;;15.83;12.33;;;;;;;;;;5046243;28;20210;-84
2021/08/15 04:44:24;;;;;;;15.70;12.00;;;;;;;;;;5037284;28;20203;-84
2021/08/15 04:47:28;;;;;;;14.43;11.93;;;;;;;;;;5025682;28;20203;-84
2021/08/15 04:50:32;;;;;;;16.77;11.13;;;;;;;;;;5012772;28;20203;-85
2021/08/15 04:53:36;;;;;;;14.67;11.97;;;;;;;;;;5038486;28;20184;-84
2021/08/15 04:56:40;;;;;;;13.67;11.60;;;;;;;;;;5035019;28;20669;-84
2021/08/15 04:59:44;;;;;;;14.90;12.23;;;;;;;;;;5023454;28;20686;-85
2021/08/15 05:02:48;;;;;;;13.97;11.40;;;;;;;;;;5025267;28;20721;-84
2021/08/15 05:05:53;;;;;;;16.10;12.23;;;;;;;;;;5014583;28;20192;-85
2021/08/15 05:08:57;;;;;;;16.37;11.97;;;;;;;;;;5015974;28;20686;-84
2021/08/15 05:12:01;;;;;;;15.87;12.43;;;;;;;;;;5033601;28;20585;-84
2021/08/15 05:15:05;;;;;;;15.47;11.23;;;;;;;;;;5020190;28;20554;-84
2021/08/15 05:18:10;;;;;;;16.43;11.70;;;;;;;;;;5022111;28;20199;-84
2021/08/15 05:21:14;;;;;;;14.20;10.87;;;;;;;;;;5025988;28;20199;-85
2021/08/15 05:24:18;;;;;;;15.47;11.40;;;;;;;;;;5020954;28;20191;-84
2021/08/15 05:27:22;;;;;;;16.40;11.50;;;;;;;;;;5032940;28;20218;-84
2021/08/15 05:30:27;;;;;;;14.53;10.87;;;;;;;;;;5027721;28;20196;-84
2021/08/15 05:33:31;;;;;;;15.43;11.13;;;;;;;;;;5013460;28;20223;-84
2021/08/15 05:36:35;;;;;;;14.10;10.83;;;;;;;;;;5002839;28;20208;-84
2021/08/15 05:39:39;;;;;;;13.90;11.60;;;;;;;;;;5032996;28;20191;-84
2021/08/15 05:42:43;;;;;;;15.30;11.97;;;;;;;;;;5025268;28;20235;-84
2021/08/15 05:45:47;;;;;;;15.13;11.13;;;;;;;;;;5034716;28;20207;-84
2021/08/15 05:48:51;;;;;;;19.60;13.77;;;;;;;;;;5013828;28;20547;-84
2021/08/15 05:51:56;;;;;;;15.20;12.57;;;;;;;;;;5028563;28;20235;-84
2021/08/15 05:55:00;;;;;;;12.90;11.27;;;;;;;;;;5020285;28;20218;-84
2021/08/15 05:58:04;;;;;;;15.67;12.03;;;;;;;;;;5016039;28;20195;-84
2021/08/15 06:01:09;;;;;;;16.83;12.23;;;;;;;;;;5020263;28;20217;-84
2021/08/15 06:04:13;;;;;;;16.37;13.17;;;;;;;;;;5033284;28;20215;-85
2021/08/15 06:07:17;;;;;;;17.63;12.23;;;;;;;;;;5024712;28;20196;-85
2021/08/15 06:10:22;;;;;;;17.17;12.97;;;;;;;;;;5044188;28;20199;-84
2021/08/15 06:13:25;;;;;;;16.33;12.60;;;;;;;;;;5012446;28;20693;-84
2021/08/15 06:16:30;;;;;;;16.97;13.13;;;;;;;;;;5012402;28;20196;-84
2021/08/15 06:19:34;;;;;;;23.20;14.10;;;;;;;;;;5031836;28;20203;-83
2021/08/15 06:22:43;;;;;;;20.57;13.43;;;;;;;;;;5030639;28;20587;-82
2021/08/15 06:25:47;;;;;;;15.83;12.53;;;;;;;;;;5023886;28;20646;-83
2021/08/15 06:28:52;;;;;;;19.47;12.90;;;;;;;;;;5013385;28;20702;-85
2021/08/15 06:31:56;;;;;;;18.10;13.17;;;;;;;;;;5043171;28;20238;-84
2021/08/15 06:35:00;;;;;;;17.87;12.70;;;;;;;;;;5010049;28;20230;-84
2021/08/15 06:38:04;;;;;;;15.90;13.23;;;;;;;;;;5032733;28;20195;-83
2021/08/15 06:41:09;;;;;;;16.80;12.83;;;;;;;;;;5005261;28;20198;-84
2021/08/15 06:44:13;;;;;;;16.97;11.90;;;;;;;;;;5022469;28;20709;-84
2021/08/15 06:47:17;;;;;;;16.27;12.07;;;;;;;;;;5043669;28;20211;-84
2021/08/15 06:50:22;;;;;;;15.03;11.17;;;;;;;;;;5031175;28;20191;-84
2021/08/15 06:53:27;;;;;;;15.37;11.30;;;;;;;;;;5029666;28;20215;-84
2021/08/15 06:56:32;;;;;;;15.23;11.20;;;;;;;;;;5031155;28;20203;-84
2021/08/15 06:59:36;;;;;;;13.73;12.03;;;;;;;;;;5028209;28;20186;-85
2021/08/15 07:02:43;;;;;;;13.63;9.60;;;;;;;;;;5031626;28;20235;-84
2021/08/15 07:05:48;;;;;;;12.17;10.30;;;;;;;;;;5012173;28;20188;-84
2021/08/15 07:08:52;;;;;;;11.30;9.40;;;;;;;;;;5023338;28;20184;-84
2021/08/15 07:11:57;;;;;;;13.73;9.83;;;;;;;;;;5012496;28;20219;-84
2021/08/15 07:15:01;;;;;;;13.33;9.33;;;;;;;;;;5011071;28;20189;-86
2021/08/15 07:18:05;;;;;;;13.33;9.93;;;;;;;;;;5034752;28;20208;-87
2021/08/15 07:21:09;;;;;;;15.03;8.67;;;;;;;;;;4999994;28;20209;-87
2021/08/15 07:24:14;;;;;;;13.97;8.90;;;;;;;;;;5022465;28;20208;-87
2021/08/15 07:27:18;;;;;;;11.43;7.87;;;;;;;;;;5017717;28;20192;-87
2021/08/15 07:30:23;;;;;;;11.33;7.73;;;;;;;;;;5014358;28;20203;-85
2021/08/15 07:33:27;;;;;;;9.77;7.80;;;;;;;;;;5015634;28;20308;-86
2021/08/15 07:36:31;;;;;;;9.57;6.93;;;;;;;;;;5023152;28;20642;-89
2021/08/15 07:39:35;;;;;;;10.47;7.60;;;;;;;;;;5026770;28;20178;-88
2021/08/15 07:42:39;;;;;;;9.47;7.27;;;;;;;;;;5025803;28;20306;-87
2021/08/15 07:45:43;;;;;;;8.90;7.37;;;;;;;;;;5018696;28;20181;-87
2021/08/15 07:48:47;;;;;;;8.27;6.53;;;;;;;;;;5007182;28;20194;-87
2021/08/15 07:51:51;;;;;;;8.90;6.60;;;;;;;;;;5017540;28;20224;-88
2021/08/15 07:54:55;;;;;;;10.27;6.80;;;;;;;;;;5012826;28;20199;-87
2021/08/15 07:58:00;;;;;;;9.47;6.77;;;;;;;;;;5026579;28;20205;-85
2021/08/15 08:01:04;;;;;;;10.77;6.30;;;;;;;;;;5026339;28;20194;-86
2021/08/15 08:04:08;;;;;;;6.90;5.90;;;;;;;;;;5017920;28;20218;-86
2021/08/15 08:07:13;;;;;;;7.85;6.25;;;;;;;;;;5014284;28;20202;-85
2021/08/15 08:10:17;;;;;;;9.88;6.40;;;;;;;;;;5010411;28;20188;-86
2021/08/15 08:13:22;;;;;;;8.80;6.20;;;;;;;;;;5012299;28;20533;-87
2021/08/15 08:16:27;;;;;;;8.68;6.00;;;;;;;;;;5014858;28;20194;-86
2021/08/15 08:19:31;;;;;;;11.43;6.55;;;;;;;;;;5014736;28;20683;-86
2021/08/15 08:22:36;;;;;;;8.02;5.97;;;;;;;;;;5014885;28;20235;-86
2021/08/15 08:25:43;;;;;;;8.45;6.20;;;;;;;;;;5026421;28;20644;-86
2021/08/15 08:28:47;;;;;;;10.90;6.07;;;;;;;;;;5036877;28;20194;-86
2021/08/15 08:31:51;;;;;;;9.82;5.53;;;;;;;;;;5025352;28;20240;-87
2021/08/15 08:34:56;;;;;;;8.32;5.68;;;;;;;;;;5014638;28;20187;-86
2021/08/15 08:38:00;;;;;;;8.43;5.45;;;;;;;;;;5006367;28;20201;-86
2021/08/15 08:41:04;;;;;;;9.50;5.78;;;;;;;;;;4995130;28;20185;-87
2021/08/15 08:44:09;;;;;;;7.43;5.20;;;;;;;;;;5012301;28;20216;-86
2021/08/15 08:47:13;;;;;;;9.93;5.35;;;;;;;;;;5035561;28;20200;-87
2021/08/15 08:50:18;;;;;;;6.15;5.15;;;;;;;;;;5005855;28;20185;-86
2021/08/15 08:53:22;;;;;;;9.23;5.95;;;;;;;;;;5017048;28;20220;-86
2021/08/15 08:56:26;;;;;;;8.57;5.78;;;;;;;;;;4994481;28;20181;-86
2021/08/15 08:59:31;;;;;;;6.90;5.50;;;;;;;;;;5029869;28;20188;-87
2021/08/15 09:02:38;;;;;;;14.93;6.25;;;;;;;;;;5007771;28;20563;-86
2021/08/15 09:05:55;;;;;;;9.55;5.80;;;;;;;;;;5025916;28;20626;-87
2021/08/15 09:09:12;;;;;;;13.65;6.10;;;;;;;;;;5025336;28;20197;-87
2021/08/15 09:12:17;;;;;;;8.60;6.13;;;;;;;;;;5005505;28;20221;-86
2021/08/15 09:15:22;;;;;;;7.00;6.28;;;;;;;;;;5018071;28;20585;-87
2021/08/15 09:18:31;;;;;;;9.80;5.55;;;;;;;;;;5023475;28;20201;-87
2021/08/15 09:21:35;;;;;;;7.55;5.72;;;;;;;;;;5023784;28;20213;-87
2021/08/15 09:24:48;;;;;;;7.05;6.35;;;;;;;;;;5009184;28;20224;-87
2021/08/15 09:27:55;;;;;;;11.20;5.80;;;;;;;;;;5017146;28;20184;-85
2021/08/15 09:31:15;;;;;;;7.15;5.80;;;;;;;;;;5038444;28;20203;-85
2021/08/15 09:34:28;;;;;;;8.52;5.30;;;;;;;;;;5029890;28;20196;-85
2021/08/15 09:37:34;;;;;;;9.93;6.10;;;;;;;;;;5030154;28;20205;-85
2021/08/15 09:40:40;;;;;;;7.15;5.30;;;;;;;;;;5012306;28;20205;-86
2021/08/15 09:43:44;;;;;;;6.13;5.53;;;;;;;;;;5025419;28;20212;-83
2021/08/15 09:47:14;;;;;;;9.63;5.90;;;;;;;;;;5023176;28;20196;-82
2021/08/15 09:50:22;;;;;;;10.50;5.93;;;;;;;;;;5006053;28;20185;-83
2021/08/15 09:53:26;;;;;;;9.77;6.05;;;;;;;;;;5031906;28;20220;-83
2021/08/15 09:56:39;;;;;;;7.28;5.82;;;;;;;;;;5009910;28;20180;-83
2021/08/15 09:59:43;;;;;;;8.45;5.80;;;;;;;;;;5001069;28;20636;-84
2021/08/15 10:02:48;;;;;;;6.97;5.63;;;;;;;;;;5008894;28;20221;-85
2021/08/15 10:05:54;;;;;;;11.77;5.80;;;;;;;;;;5009017;28;20173;-85
2021/08/15 10:09:01;;;;;;;8.93;5.40;;;;;;;;;;5025909;28;20211;-84
2021/08/15 10:12:05;;;;;;;11.70;6.20;;;;;;;;;;5027218;28;20224;-84
2021/08/15 10:15:13;;;;;;;6.50;5.82;;;;;;;;;;5028462;28;20185;-85
2021/08/15 10:18:20;;;;;;;6.65;5.70;;;;;;;;;;5009658;28;20185;-85
2021/08/15 10:21:25;;;;;;;7.15;5.65;;;;;;;;;;5039024;28;20197;-85
2021/08/15 10:24:47;;;;;;;10.07;6.15;;;;;;;;;;5015731;28;20208;-85
2021/08/15 10:27:51;;;;;;;9.80;5.82;;;;;;;;;;5016938;28;20194;-84
2021/08/15 10:30:57;;;;;;;8.35;5.50;;;;;;;;;;5048789;28;20188;-84
2021/08/15 10:34:04;;;;;;;7.10;5.80;;;;;;;;;;5019465;28;20185;-84
2021/08/15 10:37:24;;;;;;;15.88;6.75;;;;;;;;;;5023555;28;20192;-84
2021/08/15 10:40:40;;;;;;;8.43;6.20;;;;;;;;;;5016064;28;20952;-84
2021/08/15 10:43:54;;;;;;;6.40;5.80;;;;;;;;;;5007699;28;20209;-84
2021/08/15 10:47:07;;;;;;;9.45;5.03;;;;;;;;;;4997086;28;20522;-84
2021/08/15 10:50:12;;;;;;;7.82;5.80;;;;;;;;;;4997143;28;20182;-84
2021/08/15 10:53:26;;;;;;;7.22;5.57;;;;;;;;;;5007942;28;20217;-84
2021/08/15 10:56:53;;;;;;;5.63;4.65;;;;;;;;;;4996364;28;20549;-84
2021/08/15 10:59:58;;;;;;;6.80;5.35;;;;;;;;;;4996771;28;20178;-84
2021/08/15 11:03:11;;;;;;;10.18;5.80;;;;;;;;;;5013665;28;20208;-84
2021/08/15 11:06:30;;;;;;;29.45;7.68;;;;;;;;;;5031004;28;20188;-84
2021/08/15 11:09:57;;;;;;;7.75;6.40;;;;;;;;;;5007677;28;20200;-84
2021/08/15 11:13:20;;;;;;;8.50;5.30;;;;;;;;;;4996683;28;20217;-84
2021/08/15 11:16:25;;;;;;;6.70;5.60;;;;;;;;;;4996329;28;20174;-84
2021/08/15 11:19:31;;;;;;;12.30;6.25;;;;;;;;;;4996024;28;20196;-84
2021/08/15 11:22:35;;;;;;;7.75;5.53;;;;;;;;;;4996108;28;20241;-85
2021/08/15 11:25:40;;;;;;;47.10;9.05;;;;;;;;;;4995671;28;20229;-84
2021/08/15 11:28:44;;;;;;;10.10;6.15;;;;;;;;;;5007357;28;20185;-84
2021/08/15 11:31:50;;;;;;;13.20;5.75;;;;;;;;;;5030033;28;20251;-84
2021/08/15 11:35:02;;;;;;;7.72;6.13;;;;;;;;;;5007344;28;20184;-83
2021/08/15 11:38:09;;;;;;;10.80;6.15;;;;;;;;;;4996105;28;20604;-84
2021/08/15 11:41:13;;;;;;;9.00;6.10;;;;;;;;;;4995979;28;20193;-84
2021/08/15 11:44:17;;;;;;;8.95;6.20;;;;;;;;;;4995377;28;20229;-84
2021/08/15 11:47:30;;;;;;;17.15;6.47;;;;;;;;;;5006913;28;20193;-84
2021/08/15 11:50:36;;;;;;;8.95;6.20;;;;;;;;;;4995799;28;20200;-84
2021/08/15 11:53:44;;;;;;;11.95;6.05;;;;;;;;;;5006982;28;20511;-84
2021/08/15 11:56:59;;;;;;;8.85;5.30;;;;;;;;;;4995571;28;20211;-84
2021/08/15 12:00:05;;;;;;;7.95;5.18;;;;;;;;;;5006865;28;20185;-84
2021/08/15 12:03:20;;;;;;;14.65;5.97;;;;;;;;;;5019408;28;20225;-84
2021/08/15 12:06:25;;;;;;;10.35;5.22;;;;;;;;;;4995362;28;20184;-84
2021/08/15 12:09:30;;;;;;;10.98;5.97;;;;;;;;;;5018016;28;20204;-84
2021/08/15 12:12:34;;;;;;;9.35;5.88;;;;;;;;;;4995458;28;20229;-84
2021/08/15 12:15:41;;;;;;;11.85;6.35;;;;;;;;;;4995471;28;20527;-84
2021/08/15 12:18:48;;;;;;;9.68;5.40;;;;;;;;;;5006435;28;20200;-84
2021/08/15 12:21:53;;;;;;;10.27;6.20;;;;;;;;;;5006613;28;20213;-85
2021/08/15 12:24:59;;;;;;;10.63;5.82;;;;;;;;;;5006394;28;20220;-84
2021/08/15 12:28:12;;;;;;;10.60;5.68;;;;;;;;;;5006455;28;20177;-84
2021/08/15 12:31:23;;;;;;;10.15;5.35;;;;;;;;;;4994850;28;20212;-84
2021/08/15 12:34:28;;;;;;;9.30;5.90;;;;;;;;;;5006495;28;20202;-84
2021/08/15 12:37:40;;;;;;;9.00;5.72;;;;;;;;;;5006186;28;20177;-84
2021/08/15 12:40:44;;;;;;;13.23;6.13;;;;;;;;;;5017708;28;20181;-84
2021/08/15 12:44:12;;;;;;;9.18;6.03;;;;;;;;;;4995059;28;20192;-84
2021/08/15 12:47:31;;;;;;;14.05;5.95;;;;;;;;;;4995089;28;20185;-84
2021/08/15 12:50:37;;;;;;;13.50;5.93;;;;;;;;;;5010187;28;20181;-84
2021/08/15 12:53:41;;;;;;;8.27;6.22;;;;;;;;;;5010358;28;20208;-84
2021/08/15 12:56:45;;;;;;;10.30;6.20;;;;;;;;;;5009776;28;20177;-84
2021/08/15 12:59:49;;;;;;;7.20;5.45;;;;;;;;;;4998858;28;20658;-84
2021/08/15 13:02:55;;;;;;;6.28;5.35;;;;;;;;;;4999347;28;20220;-84
2021/08/15 13:06:02;;;;;;;9.40;5.13;;;;;;;;;;4998744;28;20213;-84
2021/08/15 13:09:06;;;;;;;9.05;5.38;;;;;;;;;;5009842;28;20877;-84
2021/08/15 13:12:10;;;;;;;10.68;6.13;;;;;;;;;;4998303;28;20224;-84
2021/08/15 13:15:15;;;;;;;7.88;5.97;;;;;;;;;;5028829;28;20732;-84
2021/08/15 13:18:20;;;;;;;12.10;5.72;;;;;;;;;;5009711;28;20189;-84
2021/08/15 13:21:24;;;;;;;8.50;5.68;;;;;;;;;;4998490;28;20181;-84
2021/08/15 13:24:28;;;;;;;10.75;6.00;;;;;;;;;;5009602;28;20200;-84
2021/08/15 13:27:33;;;;;;;9.23;6.28;;;;;;;;;;5033337;28;20217;-84
2021/08/15 13:30:37;;;;;;;11.32;6.10;;;;;;;;;;5009623;28;20548;-84
2021/08/15 13:33:41;;;;;;;11.23;5.45;;;;;;;;;;4998488;28;20181;-86
2021/08/15 13:36:46;;;;;;;9.68;5.82;;;;;;;;;;4998714;28;20192;-83
2021/08/15 13:39:55;;;;;;;15.60;5.80;;;;;;;;;;5009479;28;20675;-85
2021/08/15 13:43:00;;;;;;;9.35;5.60;;;;;;;;;;5008839;28;20507;-86
2021/08/15 13:46:04;;;;;;;9.55;5.80;;;;;;;;;;5020495;28;20205;-86
2021/08/15 13:49:08;;;;;;;12.48;6.20;;;;;;;;;;5020464;28;20185;-86
2021/08/15 13:52:13;;;;;;;14.07;6.45;;;;;;;;;;5009150;28;20236;-86
2021/08/15 13:55:18;;;;;;;7.85;5.60;;;;;;;;;;5005069;28;20574;-86
2021/08/15 13:58:23;;;;;;;12.93;5.47;;;;;;;;;;4997616;28;20196;-86
2021/08/15 14:01:27;;;;;;;10.30;5.28;;;;;;;;;;5009186;28;20552;-86
2021/08/15 14:04:32;;;;;;;9.80;5.85;;;;;;;;;;4997645;28;20210;-86
2021/08/15 14:07:36;;;;;;;11.55;5.78;;;;;;;;;;4997402;28;20185;-86
2021/08/15 14:10:41;;;;;;;12.00;6.10;;;;;;;;;;5020325;28;20181;-86
2021/08/15 14:13:45;;;;;;;7.88;6.00;;;;;;;;;;5008728;28;20196;-86
2021/08/15 14:16:49;;;;;;;10.55;5.82;;;;;;;;;;5020056;28;20185;-86
2021/08/15 14:19:53;;;;;;;12.52;5.80;;;;;;;;;;5008470;28;20188;-86
2021/08/15 14:22:58;;;;;;;8.57;6.03;;;;;;;;;;5008860;28;20227;-86
2021/08/15 14:26:02;;;;;;;15.13;5.70;;;;;;;;;;5008275;28;20217;-86
2021/08/15 14:29:07;;;;;;;9.25;5.93;;;;;;;;;;5008615;28;20192;-86
2021/08/15 14:32:11;;;;;;;12.77;6.25;;;;;;;;;;4996771;28;20232;-86
2021/08/15 14:35:16;;;;;;;10.05;5.78;;;;;;;;;;5004553;28;20217;-86
2021/08/15 14:38:20;;;;;;;18.33;6.32;;;;;;;;;;5008257;28;20671;-86
2021/08/15 14:41:25;;;;;;;10.80;5.93;;;;;;;;;;5008247;28;20548;-86
2021/08/15 14:44:29;;;;;;;11.65;6.00;;;;;;;;;;5008091;28;20690;-86
2021/08/15 14:47:33;;;;;;;9.13;5.63;;;;;;;;;;4996907;28;20200;-85
2021/08/15 14:50:37;;;;;;;12.38;6.25;;;;;;;;;;4996873;28;20189;-86
2021/08/15 14:53:41;;;;;;;8.65;6.25;;;;;;;;;;5007999;28;20181;-85
2021/08/15 14:56:45;;;;;;;9.57;6.20;;;;;;;;;;5007613;28;20199;-86
2021/08/15 14:59:49;;;;;;;14.30;6.43;;;;;;;;;;4996754;28;20502;-86
2021/08/15 15:02:53;;;;;;;11.60;6.35;;;;;;;;;;5014720;23;20243;-86
2021/08/15 15:05:57;;;;;;;10.48;6.10;;;;;;;;;;5016165;28;20721;-86
2021/08/15 15:09:03;;;;;;;10.93;6.28;;;;;;;;;;5038832;28;20187;-87
2021/08/15 15:12:07;;;;;;;14.23;6.55;;;;;;;;;;5027095;28;20207;-87
2021/08/15 15:15:13;;;;;;;10.27;6.57;;;;;;;;;;5016714;28;20193;-85
2021/08/15 15:18:17;;;;;;;16.63;6.35;;;;;;;;;;5016465;28;20198;-84
2021/08/15 15:21:21;;;;;;;17.02;3.75;;;;;;;;;;5041671;28;20189;-87
2021/08/15 15:24:25;;;;;;;17.60;3.67;;;;;;;;;;5034812;28;20744;-86
2021/08/15 15:27:30;;;;;;;19.50;4.50;;;;;;;;;;5032076;28;20207;-85
2021/08/15 15:30:34;;;;;;;14.83;4.30;;;;;;;;;;5039508;28;20193;-82
2021/08/15 15:33:38;;;;;;;9.07;3.77;;;;;;;;;;5039547;28;20236;-81
2021/08/15 15:36:42;;;;;;;12.70;4.20;;;;;;;;;;5038216;28;20184;-82
2021/08/15 15:39:46;;;;;;;11.63;4.20;;;;;;;;;;5026360;28;20560;-82
2021/08/15 15:42:51;;;;;;;13.27;4.70;;;;;;;;;;5019497;28;20731;-82
2021/08/15 15:45:55;;;;;;;9.57;4.50;;;;;;;;;;5014077;28;20227;-81
2021/08/15 15:48:59;;;;;;;9.63;4.37;;;;;;;;;;5018773;28;20200;-82
2021/08/15 15:52:03;;;;;;;13.20;4.83;;;;;;;;;;5020274;28;20180;-81
2021/08/15 15:55:15;;;;;;;16.47;4.80;;;;;;;;;;5018080;28;20197;-81
2021/08/15 15:58:19;;;;;;;11.67;4.57;;;;;;;;;;5016176;28;20207;-82
2021/08/15 16:01:23;;;;;;;9.67;4.07;;;;;;;;;;5029126;28;20188;-81
2021/08/15 16:04:27;;;;;;;9.70;4.70;;;;;;;;;;5052469;28;20203;-81
2021/08/15 16:07:33;;;;;;;8.03;4.47;;;;;;;;;;5028933;28;20535;-82
2021/08/15 16:10:37;;;;;;;8.13;4.40;;;;;;;;;;5029422;28;20195;-82
2021/08/15 16:13:41;;;;;;;12.77;4.40;;;;;;;;;;5052413;28;20216;-83
2021/08/15 16:16:45;;;;;;;12.40;4.50;;;;;;;;;;5027206;28;20184;-83
2021/08/15 16:19:51;;;;;;;9.37;4.63;;;;;;;;;;5039424;28;20565;-83
2021/08/15 16:22:55;;;;;;;9.47;4.33;;;;;;;;;;5032743;28;20223;-82
2021/08/15 16:26:02;;;;;;;12.73;4.43;;;;;;;;;;5029436;28;20208;-83
2021/08/15 16:29:05;;;;;;;7.83;3.93;;;;;;;;;;5029847;28;20632;-83
2021/08/15 16:32:09;;;;;;;9.83;4.40;;;;;;;;;;5028657;28;20184;-83
2021/08/15 16:35:14;;;;;;;8.30;4.00;;;;;;;;;;5041358;28;20646;-83
2021/08/15 16:38:18;;;;;;;11.40;4.37;;;;;;;;;;5054522;28;20180;-83
2021/08/15 16:41:22;;;;;;;8.13;3.83;;;;;;;;;;5029114;28;20194;-85
2021/08/15 16:44:27;;;;;;;6.93;3.53;;;;;;;;;;5053797;28;20188;-82
2021/08/15 16:47:32;;;;;;;10.77;3.60;;;;;;;;;;5031170;28;20212;-84
2021/08/15 16:50:37;;;;;;;10.23;3.50;;;;;;;;;;5031559;28;20685;-84
2021/08/15 16:53:41;;;;;;;10.20;3.47;;;;;;;;;;5007008;28;20227;-85
2021/08/15 16:56:46;;;;;;;7.23;3.30;;;;;;;;;;5020630;28;20195;-85
2021/08/15 16:59:50;;;;;;;7.47;3.47;;;;;;;;;;5032533;28;20196;-83
2021/08/15 17:02:54;;;;;;;6.53;3.17;;;;;;;;;;5020905;28;20216;-84
2021/08/15 17:06:02;;;;;;;7.57;3.33;;;;;;;;;;5019335;28;20674;-82
2021/08/15 17:09:07;;;;;;;7.57;3.37;;;;;;;;;;5051791;28;20189;-84
2021/08/15 17:12:11;;;;;;;6.67;3.27;;;;;;;;;;5020235;28;20742;-83
2021/08/15 17:15:15;;;;;;;9.20;3.77;;;;;;;;;;5032839;28;20207;-84
2021/08/15 17:18:19;;;;;;;9.03;3.73;;;;;;;;;;5015598;28;20515;-84
2021/08/15 17:21:23;;;;;;;8.03;4.13;;;;;;;;;;5014877;28;20192;-84
2021/08/15 17:24:28;;;;;;;9.90;3.20;;;;;;;;;;5026113;28;20196;-85
2021/08/15 17:27:32;;;;;;;7.87;3.73;;;;;;;;;;5014112;28;20208;-84
2021/08/15 17:30:36;;;;;;;7.10;3.60;;;;;;;;;;5026172;28;20196;-85
2021/08/15 17:33:40;;;;;;;6.30;3.37;;;;;;;;;;5026434;28;20223;-85
2021/08/15 17:36:46;;;;;;;10.27;3.97;;;;;;;;;;5018305;28;20192;-84
2021/08/15 17:39:50;;;;;;;11.00;3.40;;;;;;;;;;5052154;28;20533;-84
2021/08/15 17:42:54;;;;;;;5.67;3.47;;;;;;;;;;5041006;28;20223;-84
2021/08/15 17:45:58;;;;;;;6.97;3.60;;;;;;;;;;5041021;28;20207;-84
2021/08/15 17:49:03;;;;;;;8.83;3.47;;;;;;;;;;5029372;28;20200;-85
2021/08/15 17:52:07;;;;;;;10.80;4.20;;;;;;;;;;5017579;28;20188;-85
2021/08/15 17:55:11;;;;;;;8.80;4.27;;;;;;;;;;5029641;28;20191;-85
2021/08/15 17:58:16;;;;;;;8.63;4.03;;;;;;;;;;5009852;28;20184;-84
2021/08/15 18:01:20;;;;;;;7.47;3.63;;;;;;;;;;5031469;28;20187;-86
2021/08/15 18:04:24;;;;;;;7.63;3.60;;;;;;;;;;5017614;28;20207;-85
2021/08/15 18:07:29;;;;;;;6.03;3.90;;;;;;;;;;5028250;28;20638;-84
2021/08/15 18:10:35;;;;;;;8.90;4.10;;;;;;;;;;5028256;28;20532;-84
2021/08/15 18:13:39;;;;;;;7.97;3.97;;;;;;;;;;5031541;28;20695;-84